Terminal Aerodrome Forecast
Issued by NWS Mobile, AL

Home | Current Version | Previous Version | Text Only | Print | Product List | Glossary On
Versions: 1 2 3 4 5 6 7 8 9 10 11 12 13 14 15
000
FTUS44 KMOB 221730
TAFMOB
TAF
KMOB 221730Z 2218/2318 02004KT 5SM RA VCTS SCT035CB BKN070 BKN160
      TEMPO 2218/2221 VRB15G25KT 5SM TSRA SCT010 BKN030CB
     FM230100 20004KT P6SM SCT080 BKN250
     FM231500 14006KT P6SM VCTS SCT030CB BKN250=

USA.gov is the U.S. government's official web portal to all federal, state and local government web resources and services.